sensor_id;sensor_type;location;lat;lon;timestamp;temperature;humidity
8105;DHT22;4095;48.942;9.104;2023-11-21T00:01:59;10.40;99.90
8105;DHT22;4095;48.942;9.104;2023-11-21T00:04:24;10.40;99.90
8105;DHT22;4095;48.942;9.104;2023-11-21T00:06:51;10.40;99.90
8105;DHT22;4095;48.942;9.104;2023-11-21T00:09:16;10.40;99.90
8105;DHT22;4095;48.942;9.104;2023-11-21T00:11:43;10.50;99.90
8105;DHT22;4095;48.942;9.104;2023-11-21T00:14:10;10.40;99.90
8105;DHT22;4095;48.942;9.104;2023-11-21T00:16:36;10.40;99.90
8105;DHT22;4095;48.942;9.104;2023-11-21T00:19:01;10.50;99.90
8105;DHT22;4095;48.942;9.104;2023-11-21T00:21:27;10.50;99.90
8105;DHT22;4095;48.942;9.104;2023-11-21T00:23:52;10.50;99.90
8105;DHT22;4095;48.942;9.104;2023-11-21T00:26:18;10.50;99.90
8105;DHT22;4095;48.942;9.104;2023-11-21T00:28:44;10.50;99.90
8105;DHT22;4095;48.942;9.104;2023-11-21T00:31:09;10.60;99.90
8105;DHT22;4095;48.942;9.104;2023-11-21T00:33:36;10.60;99.90
8105;DHT22;4095;48.942;9.104;2023-11-21T00:36:02;10.60;99.90
8105;DHT22;4095;48.942;9.104;2023-11-21T00:38:28;10.70;99.90
8105;DHT22;4095;48.942;9.104;2023-11-21T00:40:53;10.70;99.90
8105;DHT22;4095;48.942;9.104;2023-11-21T00:43:22;10.70;99.90
8105;DHT22;4095;48.942;9.104;2023-11-21T00:45:48;10.70;99.90
8105;DHT22;4095;48.942;9.104;2023-11-21T00:48:16;10.70;99.90
8105;DHT22;4095;48.942;9.104;2023-11-21T00:50:43;10.70;99.90
8105;DHT22;4095;48.942;9.104;2023-11-21T00:53:09;10.70;99.90
8105;DHT22;4095;48.942;9.104;2023-11-21T00:55:36;10.80;99.90
8105;DHT22;4095;48.942;9.104;2023-11-21T00:58:02;10.80;99.90
8105;DHT22;4095;48.942;9.104;2023-11-21T01:00:29;10.80;99.90
8105;DHT22;4095;48.942;9.104;2023-11-21T01:02:55;10.90;99.90
8105;DHT22;4095;48.942;9.104;2023-11-21T01:05:21;10.80;99.90
8105;DHT22;4095;48.942;9.104;2023-11-21T01:07:46;10.90;99.90
8105;DHT22;4095;48.942;9.104;2023-11-21T01:10:12;10.90;99.90
8105;DHT22;4095;48.942;9.104;2023-11-21T01:12:38;10.90;99.90
8105;DHT22;4095;48.942;9.104;2023-11-21T01:15:05;10.90;99.90
8105;DHT22;4095;48.942;9.104;2023-11-21T01:17:37;10.90;99.90
8105;DHT22;4095;48.942;9.104;2023-11-21T01:20:04;10.90;99.90
8105;DHT22;4095;48.942;9.104;2023-11-21T01:22:36;10.80;99.90
8105;DHT22;4095;48.942;9.104;2023-11-21T01:25:02;10.80;99.90
8105;DHT22;4095;48.942;9.104;2023-11-21T01:27:29;10.80;99.90
8105;DHT22;4095;48.942;9.104;2023-11-21T01:29:55;10.90;99.90
8105;DHT22;4095;48.942;9.104;2023-11-21T01:32:21;10.90;99.90
8105;DHT22;4095;48.942;9.104;2023-11-21T01:34:47;10.90;99.90
8105;DHT22;4095;48.942;9.104;2023-11-21T01:37:13;10.90;99.90
8105;DHT22;4095;48.942;9.104;2023-11-21T01:39:41;10.90;99.90
8105;DHT22;4095;48.942;9.104;2023-11-21T01:42:07;10.90;99.90
8105;DHT22;4095;48.942;9.104;2023-11-21T01:44:33;10.90;99.90
8105;DHT22;4095;48.942;9.104;2023-11-21T01:46:58;11.00;99.90
8105;DHT22;4095;48.942;9.104;2023-11-21T01:49:24;11.00;99.90
8105;DHT22;4095;48.942;9.104;2023-11-21T01:51:50;11.00;99.90
8105;DHT22;4095;48.942;9.104;2023-11-21T01:54:18;11.00;99.90
8105;DHT22;4095;48.942;9.104;2023-11-21T01:56:46;11.00;99.90
8105;DHT22;4095;48.942;9.104;2023-11-21T01:59:17;10.90;99.90
8105;DHT22;4095;48.942;9.104;2023-11-21T02:01:43;10.90;99.90
8105;DHT22;4095;48.942;9.104;2023-11-21T02:04:09;11.00;99.90
8105;DHT22;4095;48.942;9.104;2023-11-21T02:06:35;11.00;99.90
8105;DHT22;4095;48.942;9.104;2023-11-21T02:09:01;11.00;99.90
8105;DHT22;4095;48.942;9.104;2023-11-21T02:11:26;11.00;99.90
8105;DHT22;4095;48.942;9.104;2023-11-21T02:13:53;11.00;99.90
8105;DHT22;4095;48.942;9.104;2023-11-21T02:16:19;11.00;99.90
8105;DHT22;4095;48.942;9.104;2023-11-21T02:18:47;11.00;99.90
8105;DHT22;4095;48.942;9.104;2023-11-21T02:21:14;11.00;99.90
8105;DHT22;4095;48.942;9.104;2023-11-21T02:23:40;11.00;99.90
8105;DHT22;4095;48.942;9.104;2023-11-21T02:26:10;11.00;99.90
8105;DHT22;4095;48.942;9.104;2023-11-21T02:28:36;10.90;99.90
8105;DHT22;4095;48.942;9.104;2023-11-21T02:31:02;11.00;99.90
8105;DHT22;4095;48.942;9.104;2023-11-21T02:33:30;11.00;99.90
8105;DHT22;4095;48.942;9.104;2023-11-21T02:35:59;11.00;99.90
8105;DHT22;4095;48.942;9.104;2023-11-21T02:38:25;11.00;99.90
8105;DHT22;4095;48.942;9.104;2023-11-21T02:40:51;11.00;99.90
8105;DHT22;4095;48.942;9.104;2023-11-21T02:43:16;11.00;99.90
8105;DHT22;4095;48.942;9.104;2023-11-21T02:45:42;11.10;99.90
8105;DHT22;4095;48.942;9.104;2023-11-21T02:48:08;11.10;99.90
8105;DHT22;4095;48.942;9.104;2023-11-21T02:50:33;11.10;99.90
8105;DHT22;4095;48.942;9.104;2023-11-21T02:53:01;11.10;99.90
8105;DHT22;4095;48.942;9.104;2023-11-21T02:55:27;11.10;99.90
8105;DHT22;4095;48.942;9.104;2023-11-21T02:57:53;11.10;99.90
8105;DHT22;4095;48.942;9.104;2023-11-21T03:00:19;11.10;99.90
8105;DHT22;4095;48.942;9.104;2023-11-21T03:02:45;11.10;99.90
8105;DHT22;4095;48.942;9.104;2023-11-21T03:05:12;11.10;99.90
8105;DHT22;4095;48.942;9.104;2023-11-21T03:07:38;11.10;99.90
8105;DHT22;4095;48.942;9.104;2023-11-21T03:10:05;11.10;99.90
8105;DHT22;4095;48.942;9.104;2023-11-21T03:12:31;11.10;99.90
8105;DHT22;4095;48.942;9.104;2023-11-21T03:14:56;11.10;99.90
8105;DHT22;4095;48.942;9.104;2023-11-21T03:17:22;11.00;99.90
8105;DHT22;4095;48.942;9.104;2023-11-21T03:19:48;11.00;99.90
8105;DHT22;4095;48.942;9.104;2023-11-21T03:22:13;10.90;99.90
8105;DHT22;4095;48.942;9.104;2023-11-21T03:24:39;10.90;99.90
8105;DHT22;4095;48.942;9.104;2023-11-21T03:27:04;10.90;99.90
8105;DHT22;4095;48.942;9.104;2023-11-21T03:29:30;11.00;99.90
8105;DHT22;4095;48.942;9.104;2023-11-21T03:31:56;11.00;99.90
8105;DHT22;4095;48.942;9.104;2023-11-21T03:34:26;11.00;99.90
8105;DHT22;4095;48.942;9.104;2023-11-21T03:36:52;11.00;99.90
8105;DHT22;4095;48.942;9.104;2023-11-21T03:39:20;11.00;99.90
8105;DHT22;4095;48.942;9.104;2023-11-21T03:41:46;11.00;99.90
8105;DHT22;4095;48.942;9.104;2023-11-21T03:44:11;10.90;99.90
8105;DHT22;4095;48.942;9.104;2023-11-21T03:46:37;11.00;99.90
8105;DHT22;4095;48.942;9.104;2023-11-21T03:49:02;10.90;99.90
8105;DHT22;4095;48.942;9.104;2023-11-21T03:51:28;10.90;99.90
8105;DHT22;4095;48.942;9.104;2023-11-21T03:53:54;10.90;99.90
8105;DHT22;4095;48.942;9.104;2023-11-21T03:56:20;10.90;99.90
8105;DHT22;4095;48.942;9.104;2023-11-21T03:58:48;10.90;99.90
8105;DHT22;4095;48.942;9.104;2023-11-21T04:01:24;10.90;99.90
8105;DHT22;4095;48.942;9.104;2023-11-21T04:03:50;10.90;99.90
8105;DHT22;4095;48.942;9.104;2023-11-21T04:06:17;10.90;99.90
8105;DHT22;4095;48.942;9.104;2023-11-21T04:08:44;10.90;99.90
8105;DHT22;4095;48.942;9.104;2023-11-21T04:11:10;10.90;99.90
8105;DHT22;4095;48.942;9.104;2023-11-21T04:13:38;11.00;99.90
8105;DHT22;4095;48.942;9.104;2023-11-21T04:16:05;10.90;99.90
8105;DHT22;4095;48.942;9.104;2023-11-21T04:18:31;10.90;99.90
8105;DHT22;4095;48.942;9.104;2023-11-21T04:20:57;10.90;99.90
8105;DHT22;4095;48.942;9.104;2023-11-21T04:23:23;10.90;99.90
8105;DHT22;4095;48.942;9.104;2023-11-21T04:25:48;10.90;99.90
8105;DHT22;4095;48.942;9.104;2023-11-21T04:28:14;10.90;99.90
8105;DHT22;4095;48.942;9.104;2023-11-21T04:30:39;10.90;99.90
8105;DHT22;4095;48.942;9.104;2023-11-21T04:33:06;10.90;99.90
8105;DHT22;4095;48.942;9.104;2023-11-21T04:35:33;10.90;99.90
8105;DHT22;4095;48.942;9.104;2023-11-21T04:37:58;10.90;99.90
8105;DHT22;4095;48.942;9.104;2023-11-21T04:40:24;10.90;99.90
8105;DHT22;4095;48.942;9.104;2023-11-21T04:42:49;11.00;99.90
8105;DHT22;4095;48.942;9.104;2023-11-21T04:45:15;10.90;99.90
8105;DHT22;4095;48.942;9.104;2023-11-21T04:47:41;10.90;99.90
8105;DHT22;4095;48.942;9.104;2023-11-21T04:50:07;10.90;99.90
8105;DHT22;4095;48.942;9.104;2023-11-21T04:52:32;10.90;99.90
8105;DHT22;4095;48.942;9.104;2023-11-21T04:54:58;10.90;99.90
8105;DHT22;4095;48.942;9.104;2023-11-21T04:57:26;10.90;99.90
8105;DHT22;4095;48.942;9.104;2023-11-21T04:59:54;11.00;99.90
8105;DHT22;4095;48.942;9.104;2023-11-21T05:02:19;11.00;99.90
8105;DHT22;4095;48.942;9.104;2023-11-21T05:04:46;10.90;99.90
8105;DHT22;4095;48.942;9.104;2023-11-21T05:07:12;11.00;99.90
8105;DHT22;4095;48.942;9.104;2023-11-21T05:09:42;11.00;99.90
8105;DHT22;4095;48.942;9.104;2023-11-21T05:12:09;10.90;99.90
8105;DHT22;4095;48.942;9.104;2023-11-21T05:14:36;10.90;99.90
8105;DHT22;4095;48.942;9.104;2023-11-21T05:17:02;10.90;99.90
8105;DHT22;4095;48.942;9.104;2023-11-21T05:19:29;10.90;99.90
8105;DHT22;4095;48.942;9.104;2023-11-21T05:21:55;10.90;99.90
8105;DHT22;4095;48.942;9.104;2023-11-21T05:24:20;10.90;99.90
8105;DHT22;4095;48.942;9.104;2023-11-21T05:26:46;10.90;99.90
8105;DHT22;4095;48.942;9.104;2023-11-21T05:29:12;10.90;99.90
8105;DHT22;4095;48.942;9.104;2023-11-21T05:31:37;10.90;99.90
8105;DHT22;4095;48.942;9.104;2023-11-21T05:34:04;10.90;99.90
8105;DHT22;4095;48.942;9.104;2023-11-21T05:36:30;10.90;99.90
8105;DHT22;4095;48.942;9.104;2023-11-21T05:38:56;10.90;99.90
8105;DHT22;4095;48.942;9.104;2023-11-21T05:41:22;10.90;99.90
8105;DHT22;4095;48.942;9.104;2023-11-21T05:43:48;10.80;99.90
8105;DHT22;4095;48.942;9.104;2023-11-21T05:46:14;10.90;99.90
8105;DHT22;4095;48.942;9.104;2023-11-21T05:48:40;10.80;99.90
8105;DHT22;4095;48.942;9.104;2023-11-21T05:51:06;10.90;99.90
8105;DHT22;4095;48.942;9.104;2023-11-21T05:53:32;10.80;99.90
8105;DHT22;4095;48.942;9.104;2023-11-21T05:55:58;10.80;99.90
8105;DHT22;4095;48.942;9.104;2023-11-21T05:58:23;10.80;99.90
8105;DHT22;4095;48.942;9.104;2023-11-21T06:00:49;10.80;99.90
8105;DHT22;4095;48.942;9.104;2023-11-21T06:03:15;10.70;99.90
8105;DHT22;4095;48.942;9.104;2023-11-21T06:05:40;10.70;99.90
8105;DHT22;4095;48.942;9.104;2023-11-21T06:08:06;10.80;99.90
8105;DHT22;4095;48.942;9.104;2023-11-21T06:10:32;10.80;99.90
8105;DHT22;4095;48.942;9.104;2023-11-21T06:12:58;10.80;99.90
8105;DHT22;4095;48.942;9.104;2023-11-21T06:15:24;10.80;99.90
8105;DHT22;4095;48.942;9.104;2023-11-21T06:17:49;10.80;99.90
8105;DHT22;4095;48.942;9.104;2023-11-21T06:20:18;10.80;99.90
8105;DHT22;4095;48.942;9.104;2023-11-21T06:22:46;10.80;99.90
8105;DHT22;4095;48.942;9.104;2023-11-21T06:25:13;10.80;99.90
8105;DHT22;4095;48.942;9.104;2023-11-21T06:27:43;10.80;99.90
8105;DHT22;4095;48.942;9.104;2023-11-21T06:30:10;10.70;99.90
8105;DHT22;4095;48.942;9.104;2023-11-21T06:32:38;10.70;99.90
8105;DHT22;4095;48.942;9.104;2023-11-21T06:35:05;10.70;99.90
8105;DHT22;4095;48.942;9.104;2023-11-21T06:37:31;10.70;99.90
8105;DHT22;4095;48.942;9.104;2023-11-21T06:39:58;10.70;99.90
8105;DHT22;4095;48.942;9.104;2023-11-21T06:42:25;10.70;99.90
8105;DHT22;4095;48.942;9.104;2023-11-21T06:44:51;10.70;99.90
8105;DHT22;4095;48.942;9.104;2023-11-21T06:47:17;10.70;99.90
8105;DHT22;4095;48.942;9.104;2023-11-21T06:49:45;10.70;99.90
8105;DHT22;4095;48.942;9.104;2023-11-21T06:52:13;10.70;99.90
8105;DHT22;4095;48.942;9.104;2023-11-21T06:54:39;10.80;99.90
8105;DHT22;4095;48.942;9.104;2023-11-21T06:57:05;10.70;99.90
8105;DHT22;4095;48.942;9.104;2023-11-21T06:59:30;10.70;99.90
8105;DHT22;4095;48.942;9.104;2023-11-21T07:01:56;10.70;99.90
8105;DHT22;4095;48.942;9.104;2023-11-21T07:04:22;10.70;99.90
8105;DHT22;4095;48.942;9.104;2023-11-21T07:06:48;10.80;99.90
8105;DHT22;4095;48.942;9.104;2023-11-21T07:09:13;10.80;99.90
8105;DHT22;4095;48.942;9.104;2023-11-21T07:11:39;10.80;99.90
8105;DHT22;4095;48.942;9.104;2023-11-21T07:14:05;10.80;99.90
8105;DHT22;4095;48.942;9.104;2023-11-21T07:16:37;10.80;99.90
8105;DHT22;4095;48.942;9.104;2023-11-21T07:19:06;10.80;99.90
8105;DHT22;4095;48.942;9.104;2023-11-21T07:21:35;10.80;99.90
8105;DHT22;4095;48.942;9.104;2023-11-21T07:24:02;10.90;99.90
8105;DHT22;4095;48.942;9.104;2023-11-21T07:26:28;10.90;99.90
8105;DHT22;4095;48.942;9.104;2023-11-21T07:28:54;10.90;99.90
8105;DHT22;4095;48.942;9.104;2023-11-21T07:31:21;11.00;99.90
8105;DHT22;4095;48.942;9.104;2023-11-21T07:33:47;10.90;99.90
8105;DHT22;4095;48.942;9.104;2023-11-21T07:36:13;11.00;99.90
8105;DHT22;4095;48.942;9.104;2023-11-21T07:38:39;11.00;99.90
8105;DHT22;4095;48.942;9.104;2023-11-21T07:41:05;11.10;99.90
8105;DHT22;4095;48.942;9.104;2023-11-21T07:43:36;11.10;99.90
8105;DHT22;4095;48.942;9.104;2023-11-21T07:46:03;11.20;99.90
8105;DHT22;4095;48.942;9.104;2023-11-21T07:48:29;11.20;99.90
8105;DHT22;4095;48.942;9.104;2023-11-21T07:50:55;11.10;99.90
8105;DHT22;4095;48.942;9.104;2023-11-21T07:53:21;11.20;99.90
8105;DHT22;4095;48.942;9.104;2023-11-21T07:55:47;11.20;99.90
8105;DHT22;4095;48.942;9.104;2023-11-21T07:58:13;11.20;99.90
8105;DHT22;4095;48.942;9.104;2023-11-21T08:00:38;11.20;99.90
8105;DHT22;4095;48.942;9.104;2023-11-21T08:03:05;11.20;99.90
8105;DHT22;4095;48.942;9.104;2023-11-21T08:05:31;11.20;99.90
8105;DHT22;4095;48.942;9.104;2023-11-21T08:07:57;11.20;99.90
8105;DHT22;4095;48.942;9.104;2023-11-21T08:10:22;11.20;99.90
8105;DHT22;4095;48.942;9.104;2023-11-21T08:12:48;11.30;99.90
8105;DHT22;4095;48.942;9.104;2023-11-21T08:15:15;11.20;99.90
8105;DHT22;4095;48.942;9.104;2023-11-21T08:17:41;11.30;99.90
8105;DHT22;4095;48.942;9.104;2023-11-21T08:20:07;11.30;99.90
8105;DHT22;4095;48.942;9.104;2023-11-21T08:22:36;11.30;99.90
8105;DHT22;4095;48.942;9.104;2023-11-21T08:25:01;11.30;99.90
8105;DHT22;4095;48.942;9.104;2023-11-21T08:27:29;11.30;99.90
8105;DHT22;4095;48.942;9.104;2023-11-21T08:29:55;11.30;99.90
8105;DHT22;4095;48.942;9.104;2023-11-21T08:32:22;11.30;99.90
8105;DHT22;4095;48.942;9.104;2023-11-21T08:34:47;11.40;99.90
8105;DHT22;4095;48.942;9.104;2023-11-21T08:37:16;11.30;99.90
8105;DHT22;4095;48.942;9.104;2023-11-21T08:39:43;11.30;99.90
8105;DHT22;4095;48.942;9.104;2023-11-21T08:42:09;11.40;99.90
8105;DHT22;4095;48.942;9.104;2023-11-21T08:44:35;11.40;99.90
8105;DHT22;4095;48.942;9.104;2023-11-21T08:47:00;11.40;99.90
8105;DHT22;4095;48.942;9.104;2023-11-21T08:49:26;11.40;99.90
8105;DHT22;4095;48.942;9.104;2023-11-21T08:51:53;11.40;99.90
8105;DHT22;4095;48.942;9.104;2023-11-21T08:54:21;11.40;99.90
8105;DHT22;4095;48.942;9.104;2023-11-21T08:56:46;11.40;99.90
8105;DHT22;4095;48.942;9.104;2023-11-21T08:59:13;11.40;99.90
8105;DHT22;4095;48.942;9.104;2023-11-21T09:01:39;11.40;99.90
8105;DHT22;4095;48.942;9.104;2023-11-21T09:04:06;11.50;99.90
8105;DHT22;4095;48.942;9.104;2023-11-21T09:06:31;11.50;99.90
8105;DHT22;4095;48.942;9.104;2023-11-21T09:08:57;11.50;99.90
8105;DHT22;4095;48.942;9.104;2023-11-21T09:11:23;11.50;99.90
8105;DHT22;4095;48.942;9.104;2023-11-21T09:13:50;11.50;99.90
8105;DHT22;4095;48.942;9.104;2023-11-21T09:16:16;11.40;99.90
8105;DHT22;4095;48.942;9.104;2023-11-21T09:18:42;11.50;99.90
8105;DHT22;4095;48.942;9.104;2023-11-21T09:21:08;11.50;99.90
8105;DHT22;4095;48.942;9.104;2023-11-21T09:23:35;11.50;99.90
8105;DHT22;4095;48.942;9.104;2023-11-21T09:26:01;11.40;99.90
8105;DHT22;4095;48.942;9.104;2023-11-21T09:28:27;11.40;99.90
8105;DHT22;4095;48.942;9.104;2023-11-21T09:30:53;11.40;99.90
8105;DHT22;4095;48.942;9.104;2023-11-21T09:33:19;11.40;99.90
8105;DHT22;4095;48.942;9.104;2023-11-21T09:35:46;11.40;99.90
8105;DHT22;4095;48.942;9.104;2023-11-21T09:38:12;11.50;99.90
8105;DHT22;4095;48.942;9.104;2023-11-21T09:40:38;11.50;99.90
8105;DHT22;4095;48.942;9.104;2023-11-21T09:43:07;11.50;99.90
8105;DHT22;4095;48.942;9.104;2023-11-21T09:45:39;11.50;99.90
8105;DHT22;4095;48.942;9.104;2023-11-21T09:48:06;11.60;99.90
8105;DHT22;4095;48.942;9.104;2023-11-21T09:50:36;11.60;99.90
8105;DHT22;4095;48.942;9.104;2023-11-21T09:53:19;11.50;99.90
8105;DHT22;4095;48.942;9.104;2023-11-21T09:55:52;11.50;99.90
8105;DHT22;4095;48.942;9.104;2023-11-21T09:58:18;11.60;99.90
8105;DHT22;4095;48.942;9.104;2023-11-21T10:00:46;11.60;99.90
8105;DHT22;4095;48.942;9.104;2023-11-21T10:03:13;11.70;99.90
8105;DHT22;4095;48.942;9.104;2023-11-21T10:05:40;11.70;99.90
8105;DHT22;4095;48.942;9.104;2023-11-21T10:08:11;11.70;99.90
8105;DHT22;4095;48.942;9.104;2023-11-21T10:10:38;11.70;99.90
8105;DHT22;4095;48.942;9.104;2023-11-21T10:13:07;11.70;99.90
8105;DHT22;4095;48.942;9.104;2023-11-21T10:15:36;11.80;99.90
8105;DHT22;4095;48.942;9.104;2023-11-21T10:18:03;11.90;99.90
8105;DHT22;4095;48.942;9.104;2023-11-21T10:20:30;12.20;99.90
8105;DHT22;4095;48.942;9.104;2023-11-21T10:22:56;12.50;99.90
8105;DHT22;4095;48.942;9.104;2023-11-21T10:25:22;12.70;99.90
8105;DHT22;4095;48.942;9.104;2023-11-21T10:27:49;12.90;99.90
8105;DHT22;4095;48.942;9.104;2023-11-21T10:30:18;13.30;99.90
8105;DHT22;4095;48.942;9.104;2023-11-21T10:32:46;13.50;99.90
8105;DHT22;4095;48.942;9.104;2023-11-21T10:35:12;13.50;99.90
8105;DHT22;4095;48.942;9.104;2023-11-21T10:37:41;13.40;99.90
8105;DHT22;4095;48.942;9.104;2023-11-21T10:40:09;13.40;99.90
8105;DHT22;4095;48.942;9.104;2023-11-21T10:42:38;13.40;99.90
8105;DHT22;4095;48.942;9.104;2023-11-21T10:45:05;13.30;99.90
8105;DHT22;4095;48.942;9.104;2023-11-21T10:47:38;13.20;99.90
8105;DHT22;4095;48.942;9.104;2023-11-21T10:50:04;13.10;99.90
8105;DHT22;4095;48.942;9.104;2023-11-21T10:52:30;13.00;99.90
8105;DHT22;4095;48.942;9.104;2023-11-21T10:54:56;12.90;99.90
8105;DHT22;4095;48.942;9.104;2023-11-21T10:57:28;12.90;99.90
8105;DHT22;4095;48.942;9.104;2023-11-21T10:59:54;12.90;99.90
8105;DHT22;4095;48.942;9.104;2023-11-21T11:02:24;12.90;99.90
8105;DHT22;4095;48.942;9.104;2023-11-21T11:04:54;12.90;99.90
8105;DHT22;4095;48.942;9.104;2023-11-21T11:07:26;13.10;99.90
8105;DHT22;4095;48.942;9.104;2023-11-21T11:09:58;13.10;99.90
8105;DHT22;4095;48.942;9.104;2023-11-21T11:12:24;13.10;99.90
8105;DHT22;4095;48.942;9.104;2023-11-21T11:14:51;13.20;99.90
8105;DHT22;4095;48.942;9.104;2023-11-21T11:17:19;13.00;99.90
8105;DHT22;4095;48.942;9.104;2023-11-21T11:19:47;12.90;99.90
8105;DHT22;4095;48.942;9.104;2023-11-21T11:25:14;12.80;99.90
8105;DHT22;4095;48.942;9.104;2023-11-21T11:28:01;12.70;99.90
8105;DHT22;4095;48.942;9.104;2023-11-21T11:33:07;12.80;99.90
8105;DHT22;4095;48.942;9.104;2023-11-21T11:36:02;12.70;99.90
8105;DHT22;4095;48.942;9.104;2023-11-21T11:38:33;12.70;99.90
8105;DHT22;4095;48.942;9.104;2023-11-21T11:41:05;12.70;99.90
8105;DHT22;4095;48.942;9.104;2023-11-21T11:43:31;12.70;99.90
8105;DHT22;4095;48.942;9.104;2023-11-21T11:46:10;12.80;99.90
8105;DHT22;4095;48.942;9.104;2023-11-21T11:48:40;12.90;99.90
8105;DHT22;4095;48.942;9.104;2023-11-21T11:51:15;13.10;99.90
8105;DHT22;4095;48.942;9.104;2023-11-21T11:53:43;13.40;99.90
8105;DHT22;4095;48.942;9.104;2023-11-21T11:56:23;13.60;99.90
8105;DHT22;4095;48.942;9.104;2023-11-21T11:58:56;13.80;99.90
8105;DHT22;4095;48.942;9.104;2023-11-21T12:01:23;13.90;99.90
8105;DHT22;4095;48.942;9.104;2023-11-21T12:06:43;14.30;99.90
8105;DHT22;4095;48.942;9.104;2023-11-21T12:09:18;14.30;99.90
8105;DHT22;4095;48.942;9.104;2023-11-21T12:11:44;14.30;99.90
8105;DHT22;4095;48.942;9.104;2023-11-21T12:14:10;14.30;99.90
8105;DHT22;4095;48.942;9.104;2023-11-21T12:16:35;14.20;99.90
8105;DHT22;4095;48.942;9.104;2023-11-21T12:19:02;14.10;99.90
8105;DHT22;4095;48.942;9.104;2023-11-21T12:21:28;13.90;99.90
8105;DHT22;4095;48.942;9.104;2023-11-21T12:23:55;13.70;99.90
8105;DHT22;4095;48.942;9.104;2023-11-21T12:26:23;13.50;99.90
8105;DHT22;4095;48.942;9.104;2023-11-21T12:28:55;13.30;99.90
8105;DHT22;4095;48.942;9.104;2023-11-21T12:31:23;13.10;99.90
8105;DHT22;4095;48.942;9.104;2023-11-21T12:33:50;13.00;99.90
8105;DHT22;4095;48.942;9.104;2023-11-21T12:36:16;12.90;99.90
8105;DHT22;4095;48.942;9.104;2023-11-21T12:38:42;12.80;99.90
8105;DHT22;4095;48.942;9.104;2023-11-21T12:41:09;12.70;99.90
8105;DHT22;4095;48.942;9.104;2023-11-21T12:43:35;12.70;99.90
8105;DHT22;4095;48.942;9.104;2023-11-21T12:46:08;12.60;99.90
8105;DHT22;4095;48.942;9.104;2023-11-21T12:48:41;12.60;99.90
8105;DHT22;4095;48.942;9.104;2023-11-21T12:51:12;12.50;99.90
8105;DHT22;4095;48.942;9.104;2023-11-21T12:53:41;12.50;99.90
8105;DHT22;4095;48.942;9.104;2023-11-21T12:56:09;12.40;99.90
8105;DHT22;4095;48.942;9.104;2023-11-21T12:58:39;12.50;99.90
8105;DHT22;4095;48.942;9.104;2023-11-21T13:01:06;12.50;99.90
8105;DHT22;4095;48.942;9.104;2023-11-21T13:03:38;12.50;99.90
8105;DHT22;4095;48.942;9.104;2023-11-21T13:06:05;12.50;99.90
8105;DHT22;4095;48.942;9.104;2023-11-21T13:08:31;12.60;99.90
8105;DHT22;4095;48.942;9.104;2023-11-21T13:10:58;12.70;99.90
8105;DHT22;4095;48.942;9.104;2023-11-21T13:13:25;12.70;99.90
8105;DHT22;4095;48.942;9.104;2023-11-21T13:15:58;12.80;99.90
8105;DHT22;4095;48.942;9.104;2023-11-21T13:18:27;12.90;99.90
8105;DHT22;4095;48.942;9.104;2023-11-21T13:20:54;12.90;99.90
8105;DHT22;4095;48.942;9.104;2023-11-21T13:23:20;13.00;99.90
8105;DHT22;4095;48.942;9.104;2023-11-21T13:25:46;13.10;99.90
8105;DHT22;4095;48.942;9.104;2023-11-21T13:28:13;13.10;99.90
8105;DHT22;4095;48.942;9.104;2023-11-21T13:30:41;13.10;99.90
8105;DHT22;4095;48.942;9.104;2023-11-21T13:33:07;13.10;99.90
8105;DHT22;4095;48.942;9.104;2023-11-21T13:35:38;13.10;99.90
8105;DHT22;4095;48.942;9.104;2023-11-21T13:38:10;13.10;99.90
8105;DHT22;4095;48.942;9.104;2023-11-21T13:40:38;13.10;99.90
8105;DHT22;4095;48.942;9.104;2023-11-21T13:43:16;13.40;99.90
8105;DHT22;4095;48.942;9.104;2023-11-21T13:45:44;13.50;99.90
8105;DHT22;4095;48.942;9.104;2023-11-21T13:48:11;13.40;99.90
8105;DHT22;4095;48.942;9.104;2023-11-21T13:50:46;13.40;99.90
8105;DHT22;4095;48.942;9.104;2023-11-21T13:53:24;13.30;99.90
8105;DHT22;4095;48.942;9.104;2023-11-21T13:55:50;13.20;99.90
8105;DHT22;4095;48.942;9.104;2023-11-21T13:58:17;13.10;99.90
8105;DHT22;4095;48.942;9.104;2023-11-21T14:00:50;13.00;99.90
8105;DHT22;4095;48.942;9.104;2023-11-21T14:03:22;13.00;99.90
8105;DHT22;4095;48.942;9.104;2023-11-21T14:05:50;13.00;99.90
8105;DHT22;4095;48.942;9.104;2023-11-21T14:08:22;13.00;99.90
8105;DHT22;4095;48.942;9.104;2023-11-21T14:10:54;12.90;99.90
8105;DHT22;4095;48.942;9.104;2023-11-21T14:13:23;12.90;99.90
8105;DHT22;4095;48.942;9.104;2023-11-21T14:15:50;12.90;99.90
8105;DHT22;4095;48.942;9.104;2023-11-21T14:18:26;12.80;99.90
8105;DHT22;4095;48.942;9.104;2023-11-21T14:20:57;12.80;99.90
8105;DHT22;4095;48.942;9.104;2023-11-21T14:23:22;12.70;99.90
8105;DHT22;4095;48.942;9.104;2023-11-21T14:25:49;12.70;99.90
8105;DHT22;4095;48.942;9.104;2023-11-21T14:28:15;12.60;99.90
8105;DHT22;4095;48.942;9.104;2023-11-21T14:30:41;12.60;99.90
8105;DHT22;4095;48.942;9.104;2023-11-21T14:33:08;12.60;99.90
8105;DHT22;4095;48.942;9.104;2023-11-21T14:35:35;12.50;99.90
8105;DHT22;4095;48.942;9.104;2023-11-21T14:38:01;12.50;99.90
8105;DHT22;4095;48.942;9.104;2023-11-21T14:40:32;12.40;99.90
8105;DHT22;4095;48.942;9.104;2023-11-21T14:43:02;12.40;99.90
8105;DHT22;4095;48.942;9.104;2023-11-21T14:45:31;12.40;99.90
8105;DHT22;4095;48.942;9.104;2023-11-21T14:47:58;12.40;99.90
8105;DHT22;4095;48.942;9.104;2023-11-21T14:50:30;12.30;99.90
8105;DHT22;4095;48.942;9.104;2023-11-21T14:53:12;12.30;99.90
8105;DHT22;4095;48.942;9.104;2023-11-21T14:55:39;12.20;99.90
8105;DHT22;4095;48.942;9.104;2023-11-21T14:58:17;12.20;99.90
8105;DHT22;4095;48.942;9.104;2023-11-21T15:00:56;12.10;99.90
8105;DHT22;4095;48.942;9.104;2023-11-21T15:03:27;12.00;99.90
8105;DHT22;4095;48.942;9.104;2023-11-21T15:06:01;12.00;99.90
8105;DHT22;4095;48.942;9.104;2023-11-21T15:08:48;11.90;99.90
8105;DHT22;4095;48.942;9.104;2023-11-21T15:11:14;11.80;99.90
8105;DHT22;4095;48.942;9.104;2023-11-21T15:13:42;11.80;99.90
8105;DHT22;4095;48.942;9.104;2023-11-21T15:16:08;11.80;99.90
8105;DHT22;4095;48.942;9.104;2023-11-21T15:18:35;11.80;99.90
8105;DHT22;4095;48.942;9.104;2023-11-21T15:21:01;11.80;99.90
8105;DHT22;4095;48.942;9.104;2023-11-21T15:23:29;11.80;99.90
8105;DHT22;4095;48.942;9.104;2023-11-21T15:25:59;11.80;99.90
8105;DHT22;4095;48.942;9.104;2023-11-21T15:28:25;11.80;99.90
8105;DHT22;4095;48.942;9.104;2023-11-21T15:30:50;11.80;99.90
8105;DHT22;4095;48.942;9.104;2023-11-21T15:33:17;11.80;99.90
8105;DHT22;4095;48.942;9.104;2023-11-21T15:35:43;11.80;99.90
8105;DHT22;4095;48.942;9.104;2023-11-21T15:38:09;11.80;99.90
8105;DHT22;4095;48.942;9.104;2023-11-21T15:40:34;11.70;99.90
8105;DHT22;4095;48.942;9.104;2023-11-21T15:43:00;11.70;99.90
8105;DHT22;4095;48.942;9.104;2023-11-21T15:45:28;11.70;99.90
8105;DHT22;4095;48.942;9.104;2023-11-21T15:47:54;11.70;99.90
8105;DHT22;4095;48.942;9.104;2023-11-21T15:50:21;11.70;99.90
8105;DHT22;4095;48.942;9.104;2023-11-21T15:52:47;11.60;99.90
8105;DHT22;4095;48.942;9.104;2023-11-21T15:55:13;11.60;99.90
8105;DHT22;4095;48.942;9.104;2023-11-21T15:57:38;11.60;99.90
8105;DHT22;4095;48.942;9.104;2023-11-21T16:00:05;11.50;99.90
8105;DHT22;4095;48.942;9.104;2023-11-21T16:02:36;11.60;99.90
8105;DHT22;4095;48.942;9.104;2023-11-21T16:05:04;11.50;99.90
8105;DHT22;4095;48.942;9.104;2023-11-21T16:07:30;11.50;99.90
8105;DHT22;4095;48.942;9.104;2023-11-21T16:09:57;11.40;99.90
8105;DHT22;4095;48.942;9.104;2023-11-21T16:12:23;11.30;99.90